London Express — DPLE — position and weather

sailwx.info

Track history (hours):
 
Tides and Currents Weather Stations Pressure Air Temp Water Temp Dewpoint Dewpoint Depression Visibility Wind Speed Wind Dir Waves Ship Positions

London Express

Last reported at 2017-Feb-19 09:08 UTC. Time now 2017-Feb-19 23:36 UTC.
Position N 38°58' E 003°42'.

Length 294 m; beam 32.3 m; draft 13.6 m.

Type: Ship. MMSI: 211262630.

Date/timePositionNaut miles runAvg speedWind from/ knotsBaromVisibWave heightAir tempDewpointWater temp
2017-Feb-19 09:08N 38°58' E 003°42'914.4
2017-Feb-19 08:33N 38°59' E 003°31'1614.6
2017-Feb-19 07:26N 38°59' E 003°10'1213.9
2017-Feb-19 06:33N 38°60' E 002°55'1414.1
2017-Feb-19 05:33N 39°03' E 002°37'1313.5
2017-Feb-19 04:33N 39°06' E 002°20'1413.6
2017-Feb-19 03:33N 39°09' E 002°03'1414.3
2017-Feb-19 02:33N 39°12' E 001°45'1414.1
2017-Feb-19 01:33N 39°15' E 001°27'1514.4
2017-Feb-19 00:32N 39°17' E 001°08'6114.2
2017-Feb-18 20:15N 39°24' W 000°10'710.8
2017-Feb-18 19:33N 39°26' W 000°19'0 0.5
2017-Feb-18 18:33N 39°27' W 000°19'0 0.0
2017-Feb-18 17:33N 39°27' W 000°19'0 0.0
2017-Feb-18 16:33N 39°27' W 000°19'0 0.0
2017-Feb-18 15:33N 39°27' W 000°19'0 0.0
2017-Feb-18 14:32N 39°27' W 000°19'0 0.0
2017-Feb-18 13:32N 39°27' W 000°19'0 0.0
2017-Feb-18 12:33N 39°27' W 000°19'0 0.0
2017-Feb-18 11:34N 39°27' W 000°19'0 0.0
2017-Feb-18 10:33N 39°27' W 000°19'0 0.0
2017-Feb-18 09:31N 39°27' W 000°19'0 0.0
2017-Feb-18 08:32N 39°27' W 000°19'0 0.0
2017-Feb-18 07:31N 39°27' W 000°19'0 0.0
2017-Feb-18 06:31N 39°27' W 000°19'0 0.0
2017-Feb-18 05:31N 39°27' W 000°19'0 0.0
2017-Feb-18 04:33N 39°27' W 000°19'0 0.0
2017-Feb-18 03:33N 39°27' W 000°19'0 0.0
2017-Feb-18 02:33N 39°27' W 000°19'0 0.0
2017-Feb-18 01:32N 39°27' W 000°19'0 0.0
2017-Feb-18 00:32N 39°27' W 000°19'0 0.0
2017-Feb-17 23:32N 39°27' W 000°19'0 0.0
2017-Feb-17 22:33N 39°27' W 000°19'0 0.0
2017-Feb-17 21:32N 39°27' W 000°19'0 0.0
2017-Feb-17 20:31N 39°27' W 000°19'0 0.0
2017-Feb-17 19:33N 39°27' W 000°19'0 0.0
2017-Feb-17 18:31N 39°27' W 000°19'2 1.7
2017-Feb-17 17:34N 39°25' W 000°18'7 7.3
2017-Feb-17 16:34N 39°24' W 000°08'2 1.4
2017-Feb-17 15:10N 39°23' W 000°06'0 0.6
2017-Feb-17 14:33N 39°23' W 000°06'1 0.2
2017-Feb-17 09:32N 39°22' W 000°05'10613.3
2017-Feb-17 01:33N 37°37' W 000°26'1816.7
2017-Feb-17 00:28N 37°24' W 000°42'21816.3
2017-Feb-16 11:06N 36°02' W 004°54'1017.5
2017-Feb-16 10:32N 36°00' W 005°07'1616.7
2017-Feb-16 09:33N 35°57' W 005°26'5 4.3
2017-Feb-16 08:29N 35°54' W 005°30'0 0.0
2017-Feb-16 01:33N 35°54' W 005°30'5 5.2
2017-Feb-16 00:33N 35°55' W 005°36'21315.2
2017-Feb-15 10:33N 37°34' W 009°32'1919.0
2017-Feb-15 09:33N 37°53' W 009°30'1919.0
2017-Feb-15 08:33N 38°12' W 009°27'1918.8
2017-Feb-15 07:33N 38°31' W 009°24'1212.5
2017-Feb-15 06:33N 38°41' W 009°16'5 4.7
2017-Feb-15 05:33N 38°42' W 009°10'0 0.0
2017-Feb-15 04:33N 38°42' W 009°10'0 0.0
2017-Feb-15 03:32N 38°42' W 009°10'0 0.0
2017-Feb-15 02:29N 38°42' W 009°10'0 0.0
2017-Feb-15 01:31N 38°42' W 009°10'0 0.0
2017-Feb-15 00:31N 38°42' W 009°10'0 0.0
2017-Feb-14 23:33N 38°42' W 009°10'0 0.0
2017-Feb-14 22:30N 38°42' W 009°10'0 0.0
2017-Feb-14 21:29N 38°42' W 009°10'0 0.0
2017-Feb-14 20:32N 38°42' W 009°10'0 0.0
2017-Feb-14 19:29N 38°42' W 009°10'0 0.0
2017-Feb-14 18:31N 38°42' W 009°10'0 0.0
2017-Feb-14 17:31N 38°42' W 009°10'0 0.0
2017-Feb-14 16:33N 38°42' W 009°10'0 0.0
2017-Feb-14 15:33N 38°42' W 009°10'0 0.0
2017-Feb-14 14:23N 38°42' W 009°10'0 0.0
2017-Feb-14 13:32N 38°42' W 009°10'0 0.0
2017-Feb-14 12:32N 38°42' W 009°10'0 0.0
2017-Feb-14 11:28N 38°42' W 009°10'0 0.0
2017-Feb-14 10:31N 38°42' W 009°10'0 0.0
2017-Feb-14 09:33N 38°42' W 009°10'0 0.0
2017-Feb-14 08:33N 38°42' W 009°10'8 7.9
2017-Feb-14 07:34N 38°39' W 009°20'7 6.6
2017-Feb-14 06:33N 38°39' W 009°28'4 3.6
2017-Feb-14 05:33N 38°37' W 009°32'1413.5
2017-Feb-14 04:33N 38°32' W 009°48'1514.7
2017-Feb-14 03:33N 38°30' W 010°07'26016.7
2017-Feb-13 12:00N 38°00' W 015°36'5217.5 230 / 191006.410.8 17.915.416.0
2017-Feb-13 09:00N 37°54' W 016°42'34217.6 240 / 211005.410.8 14.513.116.0
2017-Feb-12 13:33N 36°52' W 023°45'1717.0
2017-Feb-12 12:33N 36°48' W 024°06'813.6
2017-Feb-12 12:00N 36°42' W 024°12'1226.9 010 / 181009.310.8 15.214.017.0
2017-Feb-12 11:33N 36°44' W 024°26'1716.7
2017-Feb-12 10:34N 36°41' W 024°47'1716.8
2017-Feb-12 09:33N 36°37' W 025°07'1716.9
2017-Feb-12 08:34N 36°33' W 025°27'1717.1
2017-Feb-12 07:33N 36°29' W 025°48'1717.3
2017-Feb-12 06:34N 36°25' W 026°09'31817.1
2017-Feb-11 12:00N 34°54' W 032°24'42917.9 330 / 201021.610.8 19.318.219.0
2017-Feb-10 12:00N 32°30' W 040°30'43518.1 140 / 121033.510.8 21.019.120.0
2017-Feb-09 12:00N 29°30' W 048°12'   130 / 161030.310.8 22.821.823.0
Track history (hours):
 
Tides and Currents Weather Stations Pressure Air Temp Water Temp Dewpoint Dewpoint Depression Visibility Wind Speed Wind Dir Waves Ship Positions

London Express

Last reported at 2017-Feb-19 09:08 UTC. Time now 2017-Feb-19 23:36 UTC.
Position N 38°58' E 003°42'.

Length 294 m; beam 32.3 m; draft 13.6 m.

Type: Ship. MMSI: 211262630.

Date/timePositionNaut miles runAvg speedWind from/ knotsBaromVisibWave heightAir tempDewpointWater temp
2017-Feb-19 09:08N 38°58' E 003°42'914.4
2017-Feb-19 08:33N 38°59' E 003°31'1614.6
2017-Feb-19 07:26N 38°59' E 003°10'1213.9
2017-Feb-19 06:33N 38°60' E 002°55'1414.1
2017-Feb-19 05:33N 39°03' E 002°37'1313.5
2017-Feb-19 04:33N 39°06' E 002°20'1413.6
2017-Feb-19 03:33N 39°09' E 002°03'1414.3
2017-Feb-19 02:33N 39°12' E 001°45'1414.1
2017-Feb-19 01:33N 39°15' E 001°27'1514.4
2017-Feb-19 00:32N 39°17' E 001°08'6114.2
2017-Feb-18 20:15N 39°24' W 000°10'710.8
2017-Feb-18 19:33N 39°26' W 000°19'0 0.5
2017-Feb-18 18:33N 39°27' W 000°19'0 0.0
2017-Feb-18 17:33N 39°27' W 000°19'0 0.0
2017-Feb-18 16:33N 39°27' W 000°19'0 0.0
2017-Feb-18 15:33N 39°27' W 000°19'0 0.0
2017-Feb-18 14:32N 39°27' W 000°19'0 0.0
2017-Feb-18 13:32N 39°27' W 000°19'0 0.0
2017-Feb-18 12:33N 39°27' W 000°19'0 0.0
2017-Feb-18 11:34N 39°27' W 000°19'0 0.0
2017-Feb-18 10:33N 39°27' W 000°19'0 0.0
2017-Feb-18 09:31N 39°27' W 000°19'0 0.0
2017-Feb-18 08:32N 39°27' W 000°19'0 0.0
2017-Feb-18 07:31N 39°27' W 000°19'0 0.0
2017-Feb-18 06:31N 39°27' W 000°19'0 0.0
2017-Feb-18 05:31N 39°27' W 000°19'0 0.0
2017-Feb-18 04:33N 39°27' W 000°19'0 0.0
2017-Feb-18 03:33N 39°27' W 000°19'0 0.0
2017-Feb-18 02:33N 39°27' W 000°19'0 0.0
2017-Feb-18 01:32N 39°27' W 000°19'0 0.0
2017-Feb-18 00:32N 39°27' W 000°19'0 0.0
2017-Feb-17 23:32N 39°27' W 000°19'0 0.0
2017-Feb-17 22:33N 39°27' W 000°19'0 0.0
2017-Feb-17 21:32N 39°27' W 000°19'0 0.0
2017-Feb-17 20:31N 39°27' W 000°19'0 0.0
2017-Feb-17 19:33N 39°27' W 000°19'0 0.0
2017-Feb-17 18:31N 39°27' W 000°19'2 1.7
2017-Feb-17 17:34N 39°25' W 000°18'7 7.3
2017-Feb-17 16:34N 39°24' W 000°08'2 1.4
2017-Feb-17 15:10N 39°23' W 000°06'0 0.6
2017-Feb-17 14:33N 39°23' W 000°06'1 0.2
2017-Feb-17 09:32N 39°22' W 000°05'10613.3
2017-Feb-17 01:33N 37°37' W 000°26'1816.7
2017-Feb-17 00:28N 37°24' W 000°42'21816.3
2017-Feb-16 11:06N 36°02' W 004°54'1017.5
2017-Feb-16 10:32N 36°00' W 005°07'1616.7
2017-Feb-16 09:33N 35°57' W 005°26'5 4.3
2017-Feb-16 08:29N 35°54' W 005°30'0 0.0
2017-Feb-16 01:33N 35°54' W 005°30'5 5.2
2017-Feb-16 00:33N 35°55' W 005°36'21315.2
2017-Feb-15 10:33N 37°34' W 009°32'1919.0
2017-Feb-15 09:33N 37°53' W 009°30'1919.0
2017-Feb-15 08:33N 38°12' W 009°27'1918.8
2017-Feb-15 07:33N 38°31' W 009°24'1212.5
2017-Feb-15 06:33N 38°41' W 009°16'5 4.7
2017-Feb-15 05:33N 38°42' W 009°10'0 0.0
2017-Feb-15 04:33N 38°42' W 009°10'0 0.0
2017-Feb-15 03:32N 38°42' W 009°10'0 0.0
2017-Feb-15 02:29N 38°42' W 009°10'0 0.0
2017-Feb-15 01:31N 38°42' W 009°10'0 0.0
2017-Feb-15 00:31N 38°42' W 009°10'0 0.0
2017-Feb-14 23:33N 38°42' W 009°10'0 0.0
2017-Feb-14 22:30N 38°42' W 009°10'0 0.0
2017-Feb-14 21:29N 38°42' W 009°10'0 0.0
2017-Feb-14 20:32N 38°42' W 009°10'0 0.0
2017-Feb-14 19:29N 38°42' W 009°10'0 0.0
2017-Feb-14 18:31N 38°42' W 009°10'0 0.0
2017-Feb-14 17:31N 38°42' W 009°10'0 0.0
2017-Feb-14 16:33N 38°42' W 009°10'0 0.0
2017-Feb-14 15:33N 38°42' W 009°10'0 0.0
2017-Feb-14 14:23N 38°42' W 009°10'0 0.0
2017-Feb-14 13:32N 38°42' W 009°10'0 0.0
2017-Feb-14 12:32N 38°42' W 009°10'0 0.0
2017-Feb-14 11:28N 38°42' W 009°10'0 0.0
2017-Feb-14 10:31N 38°42' W 009°10'0 0.0
2017-Feb-14 09:33N 38°42' W 009°10'0 0.0
2017-Feb-14 08:33N 38°42' W 009°10'8 7.9
2017-Feb-14 07:34N 38°39' W 009°20'7 6.6
2017-Feb-14 06:33N 38°39' W 009°28'4 3.6
2017-Feb-14 05:33N 38°37' W 009°32'1413.5
2017-Feb-14 04:33N 38°32' W 009°48'1514.7
2017-Feb-14 03:33N 38°30' W 010°07'26016.7
2017-Feb-13 12:00N 38°00' W 015°36'5217.5 230 / 191006.410.8 17.915.416.0
2017-Feb-13 09:00N 37°54' W 016°42'34217.6 240 / 211005.410.8 14.513.116.0
2017-Feb-12 13:33N 36°52' W 023°45'1717.0
2017-Feb-12 12:33N 36°48' W 024°06'813.6
2017-Feb-12 12:00N 36°42' W 024°12'1226.9 010 / 181009.310.8 15.214.017.0
2017-Feb-12 11:33N 36°44' W 024°26'1716.7
2017-Feb-12 10:34N 36°41' W 024°47'1716.8
2017-Feb-12 09:33N 36°37' W 025°07'1716.9
2017-Feb-12 08:34N 36°33' W 025°27'1717.1
2017-Feb-12 07:33N 36°29' W 025°48'1717.3
2017-Feb-12 06:34N 36°25' W 026°09'31817.1
2017-Feb-11 12:00N 34°54' W 032°24'42917.9 330 / 201021.610.8 19.318.219.0
2017-Feb-10 12:00N 32°30' W 040°30'43518.1 140 / 121033.510.8 21.019.120.0
2017-Feb-09 12:00N 29°30' W 048°12'   130 / 161030.310.8 22.821.823.0

Dump ship's entire track history